createdAt,value
2022-10-29T00:03:49.847Z,7.05
2022-10-29T00:06:17.811Z,6.40
2022-10-29T00:08:45.492Z,5.82
2022-10-29T00:11:18.829Z,6.25
2022-10-29T00:13:47.079Z,5.32
2022-10-29T00:16:16.984Z,6.40
2022-10-29T00:18:44.971Z,6.53
2022-10-29T00:21:14.242Z,5.93
2022-10-29T00:23:43.145Z,5.50
2022-10-29T00:26:11.391Z,5.80
2022-10-29T00:28:39.724Z,5.88
2022-10-29T00:31:08.863Z,5.63
2022-10-29T00:33:36.639Z,5.80
2022-10-29T00:36:09.348Z,7.80
2022-10-29T00:38:37.699Z,7.13
2022-10-29T00:41:05.922Z,7.00
2022-10-29T00:43:34.724Z,6.88
2022-10-29T00:46:02.967Z,6.50
2022-10-29T00:48:32.065Z,6.50
2022-10-29T00:51:02.445Z,5.00
2022-10-29T00:53:34.794Z,5.57
2022-10-29T00:56:02.944Z,5.60
2022-10-29T00:58:34.415Z,5.57
2022-10-29T01:01:02.696Z,5.45
2022-10-29T01:03:32.278Z,5.30
2022-10-29T01:06:01.396Z,5.18
2022-10-29T01:08:29.001Z,4.95
2022-10-29T01:11:06.588Z,4.13
2022-10-29T01:13:53.337Z,4.10
2022-10-29T01:16:21.066Z,4.30
2022-10-29T01:18:55.704Z,4.82
2022-10-29T01:21:26.407Z,4.88
2022-10-29T01:24:03.424Z,5.85
2022-10-29T01:26:37.100Z,5.03
2022-10-29T01:29:05.045Z,5.40
2022-10-29T01:31:42.275Z,7.65
2022-10-29T01:34:36.416Z,9.40
2022-10-29T01:37:16.808Z,9.35
2022-10-29T01:40:06.115Z,9.98
2022-10-29T01:42:33.826Z,8.88
2022-10-29T01:45:10.987Z,9.88
2022-10-29T01:47:43.348Z,9.68
2022-10-29T01:50:14.514Z,10.55
2022-10-29T01:52:42.899Z,10.18
2022-10-29T01:55:10.466Z,9.05
2022-10-29T01:57:39.776Z,7.32
2022-10-29T02:00:07.693Z,7.05
2022-10-29T02:03:00.755Z,7.40
2022-10-29T02:05:29.018Z,7.03
2022-10-29T02:08:02.183Z,7.93
2022-10-29T02:10:39.728Z,8.40
2022-10-29T02:13:08.463Z,9.75
2022-10-29T02:15:55.560Z,8.48
2022-10-29T02:18:25.753Z,9.10
2022-10-29T02:20:53.684Z,10.48
2022-10-29T02:23:21.223Z,10.68
2022-10-29T02:25:49.124Z,12.45
2022-10-29T02:28:16.763Z,11.73
2022-10-29T02:30:44.625Z,11.77
2022-10-29T02:33:12.624Z,13.55
2022-10-29T02:35:40.454Z,12.50
2022-10-29T02:38:08.099Z,12.90
2022-10-29T02:40:36.023Z,14.23
2022-10-29T02:43:03.693Z,14.15
2022-10-29T02:45:34.773Z,13.85
2022-10-29T02:48:02.706Z,13.43
2022-10-29T02:50:31.188Z,12.45
2022-10-29T02:53:00.232Z,12.82
2022-10-29T02:55:27.819Z,12.57
2022-10-29T02:57:55.846Z,11.98
2022-10-29T03:00:23.887Z,12.55
2022-10-29T03:02:53.082Z,12.18
2022-10-29T03:05:20.725Z,10.57
2022-10-29T03:07:48.436Z,12.55
2022-10-29T03:10:16.095Z,13.13
2022-10-29T03:12:43.890Z,14.23
2022-10-29T03:15:11.664Z,12.65
2022-10-29T03:17:42.794Z,12.25
2022-10-29T03:20:10.579Z,11.00
2022-10-29T03:22:38.442Z,11.20
2022-10-29T03:25:06.401Z,12.35
2022-10-29T03:27:34.594Z,12.52
2022-10-29T03:30:02.476Z,13.73
2022-10-29T03:32:31.065Z,12.38
2022-10-29T03:34:59.969Z,13.65
2022-10-29T03:37:28.065Z,13.10
2022-10-29T03:39:56.366Z,13.13
2022-10-29T03:42:24.028Z,14.35
2022-10-29T03:44:51.760Z,14.30
2022-10-29T03:47:19.866Z,13.25
2022-10-29T03:49:47.405Z,15.13
2022-10-29T03:52:16.742Z,14.23
2022-10-29T03:54:44.716Z,13.98
2022-10-29T03:57:13.456Z,13.80
2022-10-29T03:59:41.122Z,14.35
2022-10-29T04:02:09.749Z,14.65
2022-10-29T04:04:40.211Z,14.63
2022-10-29T04:07:08.017Z,15.07
2022-10-29T04:09:37.793Z,14.77
2022-10-29T04:12:05.461Z,15.43
2022-10-29T04:14:33.546Z,13.75
2022-10-29T04:17:02.096Z,15.90
2022-10-29T04:19:32.239Z,14.75
2022-10-29T04:30:24.450Z,15.88
2022-10-29T04:32:52.192Z,17.67
2022-10-29T04:35:19.787Z,16.27
2022-10-29T04:37:47.523Z,15.70
2022-10-29T04:40:15.206Z,17.08
2022-10-29T04:42:43.008Z,16.00
2022-10-29T04:45:12.497Z,16.77
2022-10-29T04:47:40.064Z,17.38
2022-10-29T04:50:07.926Z,17.38
2022-10-29T04:52:38.066Z,17.00
2022-10-29T04:55:05.951Z,16.10
2022-10-29T04:57:33.574Z,15.93
2022-10-29T05:00:01.753Z,16.20
2022-10-29T05:02:30.887Z,16.38
2022-10-29T05:04:58.618Z,15.70
2022-10-29T05:07:27.398Z,16.88
2022-10-29T05:09:57.867Z,16.63
2022-10-29T05:12:25.692Z,14.48
2022-10-29T05:14:53.497Z,14.57
2022-10-29T05:17:22.006Z,15.20
2022-10-29T05:19:49.695Z,15.55
2022-10-29T05:22:17.347Z,15.32
2022-10-29T05:24:45.203Z,15.75
2022-10-29T05:27:13.203Z,15.48
2022-10-29T05:29:41.065Z,15.20
2022-10-29T05:32:08.745Z,15.43
2022-10-29T05:34:38.418Z,14.95
2022-10-29T05:37:08.422Z,16.27
2022-10-29T05:39:36.529Z,15.90
2022-10-29T05:42:06.838Z,15.45
2022-10-29T05:44:34.485Z,15.23
2022-10-29T05:47:02.441Z,13.25
2022-10-29T05:49:30.123Z,12.77
2022-10-29T05:51:57.870Z,11.88
2022-10-29T05:54:25.937Z,11.93
2022-10-29T05:56:53.797Z,12.25
2022-10-29T05:59:21.571Z,11.88
2022-10-29T06:01:49.423Z,11.30
2022-10-29T06:04:17.597Z,11.60
2022-10-29T06:06:45.746Z,11.88
2022-10-29T06:09:13.867Z,12.68
2022-10-29T06:11:41.562Z,12.23
2022-10-29T06:14:09.252Z,11.52
2022-10-29T06:16:37.158Z,13.18
2022-10-29T06:19:05.321Z,13.55
2022-10-29T06:21:33.914Z,13.88
2022-10-29T06:24:02.502Z,15.02
2022-10-29T06:26:31.943Z,13.43
2022-10-29T06:29:01.065Z,12.70
2022-10-29T06:31:29.765Z,13.38
2022-10-29T06:33:57.440Z,12.77
2022-10-29T06:36:25.586Z,11.63
2022-10-29T06:38:53.625Z,11.85
2022-10-29T06:41:25.605Z,12.02
2022-10-29T06:43:53.900Z,12.65
2022-10-29T06:46:21.728Z,12.18
2022-10-29T06:48:49.389Z,13.18
2022-10-29T06:51:17.359Z,13.68
2022-10-29T06:53:46.831Z,13.43
2022-10-29T06:56:14.476Z,12.35
2022-10-29T06:58:42.326Z,12.80
2022-10-29T07:01:11.067Z,13.82
2022-10-29T07:03:42.573Z,13.87
2022-10-29T07:06:11.982Z,14.63
2022-10-29T07:08:39.878Z,13.00
2022-10-29T07:11:07.986Z,14.55
2022-10-29T07:13:35.743Z,13.65
2022-10-29T07:16:03.528Z,14.68
2022-10-29T07:18:33.083Z,14.68
2022-10-29T07:21:03.156Z,14.98
2022-10-29T07:23:34.530Z,14.45
2022-10-29T07:26:03.419Z,16.23
2022-10-29T07:28:34.449Z,17.33
2022-10-29T07:31:03.413Z,17.23
2022-10-29T07:33:32.251Z,16.75
2022-10-29T07:36:01.915Z,17.95
2022-10-29T07:38:30.204Z,17.88
2022-10-29T07:40:57.920Z,18.75
2022-10-29T07:43:25.744Z,18.58
2022-10-29T07:45:53.664Z,19.95
2022-10-29T07:48:21.541Z,21.60
2022-10-29T07:50:49.763Z,23.30
2022-10-29T07:53:17.537Z,20.52
2022-10-29T07:55:45.574Z,20.05
2022-10-29T07:58:13.579Z,21.02
2022-10-29T08:00:42.524Z,19.50
2022-10-29T08:03:13.463Z,19.67
2022-10-29T08:05:42.951Z,18.85
2022-10-29T08:08:12.535Z,18.88
2022-10-29T08:10:40.523Z,18.92
2022-10-29T08:13:08.728Z,17.75
2022-10-29T08:15:37.472Z,17.33
2022-10-29T08:18:10.569Z,16.23
2022-10-29T08:20:38.416Z,16.58
2022-10-29T08:23:06.030Z,16.80
2022-10-29T08:25:36.984Z,16.42
2022-10-29T08:28:05.955Z,16.50
2022-10-29T08:30:33.706Z,15.93
2022-10-29T08:33:03.894Z,15.82
2022-10-29T08:35:34.532Z,15.82
2022-10-29T08:38:02.603Z,14.15
2022-10-29T08:40:49.361Z,15.15
2022-10-29T08:43:36.052Z,14.18
2022-10-29T08:46:04.298Z,13.82
2022-10-29T08:48:38.512Z,12.80
2022-10-29T08:51:18.544Z,12.52
2022-10-29T08:54:25.035Z,13.35
2022-10-29T08:56:45.529Z,11.88
2022-10-29T08:59:17.344Z,12.52
2022-10-29T09:01:45.215Z,12.55
2022-10-29T09:04:22.726Z,12.85
2022-10-29T09:06:53.565Z,12.02
2022-10-29T09:09:31.040Z,10.95
2022-10-29T09:12:02.936Z,11.40
2022-10-29T09:14:37.051Z,11.55
2022-10-29T09:17:10.265Z,11.88
2022-10-29T09:20:04.018Z,11.07
2022-10-29T09:22:34.890Z,11.85
2022-10-29T09:25:28.766Z,11.98
2022-10-29T09:28:15.205Z,11.95
2022-10-29T09:30:58.975Z,11.75
2022-10-29T09:33:28.133Z,12.55
2022-10-29T09:35:56.680Z,11.88
2022-10-29T09:38:39.337Z,12.70
2022-10-29T09:41:07.123Z,12.52
2022-10-29T09:43:48.273Z,11.32
2022-10-29T09:46:37.099Z,11.25
2022-10-29T09:49:04.880Z,12.25
2022-10-29T09:51:38.725Z,11.30
2022-10-29T09:54:06.695Z,12.15
2022-10-29T09:56:34.539Z,13.07
2022-10-29T09:59:13.832Z,12.65
2022-10-29T10:01:41.931Z,11.60
2022-10-29T10:04:39.851Z,11.13
2022-10-29T10:07:07.659Z,13.23
2022-10-29T10:09:54.365Z,12.10
2022-10-29T10:12:24.442Z,11.73
2022-10-29T10:15:11.364Z,12.32
2022-10-29T10:17:58.334Z,12.50
2022-10-29T10:20:34.332Z,11.45
2022-10-29T10:23:02.948Z,12.75
2022-10-29T10:25:33.965Z,11.85
2022-10-29T10:28:20.882Z,11.43
2022-10-29T10:31:07.743Z,12.23
2022-10-29T10:33:37.496Z,11.98
2022-10-29T10:36:06.883Z,11.55
2022-10-29T10:38:48.591Z,11.67
2022-10-29T10:41:17.700Z,11.25
2022-10-29T10:43:46.309Z,11.32
2022-10-29T10:46:25.442Z,11.27
2022-10-29T10:49:09.005Z,11.10
2022-10-29T10:51:39.876Z,11.00
2022-10-29T10:54:23.574Z,11.50
2022-10-29T10:57:02.614Z,10.10
2022-10-29T10:59:47.153Z,10.70
2022-10-29T11:02:21.628Z,9.52
2022-10-29T11:04:51.555Z,9.43
2022-10-29T11:07:20.079Z,8.73
2022-10-29T11:09:51.325Z,9.63
2022-10-29T11:12:28.928Z,8.93
2022-10-29T11:15:06.295Z,9.50
2022-10-29T11:17:40.260Z,7.97
2022-10-29T11:20:15.188Z,8.07
2022-10-29T11:22:53.790Z,7.65
2022-10-29T11:25:34.325Z,7.75
2022-10-29T11:28:24.198Z,7.07
2022-10-29T11:31:06.372Z,9.00
2022-10-29T11:33:39.809Z,7.95
2022-10-29T11:36:13.276Z,7.15
2022-10-29T11:38:47.594Z,7.90
2022-10-29T11:41:22.246Z,8.13
2022-10-29T11:43:50.004Z,8.15
2022-10-29T11:46:31.694Z,7.35
2022-10-29T11:49:11.855Z,8.10
2022-10-29T11:51:47.168Z,7.30
2022-10-29T11:54:34.358Z,7.70
2022-10-29T11:57:14.667Z,7.65
2022-10-29T12:02:09.769Z,8.15
2022-10-29T12:04:50.121Z,7.68
2022-10-29T12:07:33.580Z,8.38
2022-10-29T12:10:19.969Z,7.68
2022-10-29T12:12:51.332Z,7.18
2022-10-29T12:15:23.644Z,6.85
2022-10-29T12:18:02.396Z,8.30
2022-10-29T12:20:42.745Z,7.40
2022-10-29T12:23:15.549Z,6.70
2022-10-29T12:25:57.836Z,6.85
2022-10-29T12:28:50.795Z,6.40
2022-10-29T12:31:21.433Z,7.25
2022-10-29T12:33:52.655Z,5.85
2022-10-29T12:36:30.092Z,6.35
2022-10-29T12:38:58.636Z,6.35
2022-10-29T12:41:43.748Z,6.30
2022-10-29T12:44:17.867Z,5.32
2022-10-29T12:46:45.887Z,5.55
2022-10-29T12:49:23.887Z,5.45
2022-10-29T12:51:54.010Z,5.97
2022-10-29T12:54:25.683Z,5.38
2022-10-29T12:56:53.854Z,5.07
2022-10-29T12:59:26.293Z,5.43
2022-10-29T13:02:12.348Z,5.57
2022-10-29T13:05:04.294Z,5.72
2022-10-29T13:07:36.352Z,5.80
2022-10-29T13:10:33.546Z,5.63
2022-10-29T13:13:14.192Z,5.20
2022-10-29T13:15:49.720Z,5.30
2022-10-29T13:18:41.152Z,5.55
2022-10-29T13:21:10.360Z,5.07
2022-10-29T13:23:39.490Z,4.97
2022-10-29T13:26:09.710Z,5.18
2022-10-29T13:28:37.574Z,4.78
2022-10-29T13:31:08.613Z,4.53
2022-10-29T13:33:41.750Z,5.07
2022-10-29T13:36:21.688Z,4.75
2022-10-29T13:41:40.533Z,5.65
2022-10-29T13:44:09.694Z,5.05
2022-10-29T13:46:45.885Z,5.00
2022-10-29T13:49:17.145Z,5.32
2022-10-29T13:51:57.873Z,4.88
2022-10-29T13:54:28.635Z,4.30
2022-10-29T13:57:16.679Z,4.85
2022-10-29T14:00:04.006Z,4.75
2022-10-29T14:02:37.285Z,5.18
2022-10-29T14:05:25.845Z,6.00
2022-10-29T14:08:12.275Z,4.63
2022-10-29T14:10:43.104Z,5.47
2022-10-29T14:13:31.783Z,5.10
2022-10-29T14:16:03.487Z,5.05
2022-10-29T14:18:33.131Z,4.75
2022-10-29T14:21:03.669Z,5.10
2022-10-29T14:23:33.457Z,5.57
2022-10-29T14:26:04.120Z,4.78
2022-10-29T14:28:35.133Z,5.45
2022-10-29T14:31:16.564Z,5.50
2022-10-29T14:33:45.695Z,5.03
2022-10-29T14:36:34.003Z,5.22
2022-10-29T14:39:04.173Z,5.45
2022-10-29T14:41:34.103Z,5.68
2022-10-29T14:44:06.009Z,5.85
2022-10-29T14:46:35.387Z,5.38
2022-10-29T14:49:03.034Z,5.65
2022-10-29T14:51:34.487Z,5.65
2022-10-29T14:54:04.477Z,5.28
2022-10-29T14:56:34.180Z,6.20
2022-10-29T14:59:04.187Z,5.00
2022-10-29T15:01:32.721Z,6.00
2022-10-29T15:04:02.365Z,5.65
2022-10-29T15:06:31.843Z,5.40
2022-10-29T15:09:03.945Z,6.30
2022-10-29T15:11:37.637Z,5.97
2022-10-29T15:16:56.459Z,5.05
2022-10-29T15:19:24.482Z,5.10
2022-10-29T15:21:53.954Z,4.93
2022-10-29T15:24:24.471Z,5.45
2022-10-29T15:27:02.588Z,6.03
2022-10-29T15:29:36.288Z,5.18
2022-10-29T15:32:14.475Z,5.30
2022-10-29T15:34:46.926Z,5.70
2022-10-29T15:37:20.854Z,5.32
2022-10-29T15:40:09.293Z,5.38
2022-10-29T15:42:41.777Z,5.40
2022-10-29T15:45:15.040Z,6.43
2022-10-29T15:47:43.525Z,5.20
2022-10-29T15:50:44.548Z,7.00
2022-10-29T15:53:16.398Z,6.50
2022-10-29T15:55:45.085Z,6.05
2022-10-29T15:58:14.495Z,6.10
2022-10-29T16:00:42.228Z,5.57
2022-10-29T16:03:21.318Z,5.80
2022-10-29T16:05:52.864Z,5.72
2022-10-29T16:08:23.321Z,6.88
2022-10-29T16:13:19.462Z,6.80
2022-10-29T16:15:47.240Z,5.65
2022-10-29T16:18:17.370Z,6.75
2022-10-29T16:20:45.090Z,7.25
2022-10-29T16:23:14.706Z,7.03
2022-10-29T16:25:43.926Z,6.70
2022-10-29T16:28:11.587Z,7.28
2022-10-29T16:33:24.743Z,6.68
2022-10-29T16:35:52.768Z,6.07
2022-10-29T16:38:20.419Z,7.22
2022-10-29T16:40:49.234Z,7.10
2022-10-29T16:43:17.434Z,6.55
2022-10-29T16:45:45.222Z,7.18
2022-10-29T16:48:13.344Z,7.20
2022-10-29T16:50:43.112Z,8.38
2022-10-29T16:53:11.356Z,7.90
2022-10-29T16:55:40.563Z,7.22
2022-10-29T16:58:16.364Z,7.45
2022-10-29T17:00:44.954Z,6.90
2022-10-29T17:03:13.614Z,7.18
2022-10-29T17:05:42.648Z,7.47
2022-10-29T17:08:10.704Z,7.70
2022-10-29T17:11:03.010Z,7.50
2022-10-29T17:13:39.042Z,7.45
2022-10-29T17:16:10.312Z,8.27
2022-10-29T17:18:38.245Z,7.25
2022-10-29T17:21:06.164Z,7.68
2022-10-29T17:23:34.229Z,7.35
2022-10-29T17:26:03.345Z,7.88
2022-10-29T17:28:31.328Z,7.57
2022-10-29T17:31:00.389Z,8.13
2022-10-29T17:33:28.304Z,8.20
2022-10-29T17:36:07.032Z,8.35
2022-10-29T17:38:35.182Z,7.68
2022-10-29T17:41:03.150Z,8.73
2022-10-29T17:43:32.220Z,8.65
2022-10-29T17:46:03.851Z,6.82
2022-10-29T17:48:35.099Z,9.40
2022-10-29T17:51:03.392Z,7.60
2022-10-29T17:53:32.379Z,7.50
2022-10-29T17:56:04.579Z,7.63
2022-10-29T17:58:32.756Z,8.30
2022-10-29T18:01:10.099Z,7.88
2022-10-29T18:03:38.731Z,7.70
2022-10-29T18:06:09.440Z,7.95
2022-10-29T18:08:49.402Z,7.47
2022-10-29T18:11:20.660Z,7.57
2022-10-29T18:13:51.385Z,8.23
2022-10-29T18:16:21.753Z,8.18
2022-10-29T18:19:01.715Z,8.13
2022-10-29T18:21:33.627Z,7.60
2022-10-29T18:24:04.492Z,7.45
2022-10-29T18:26:35.853Z,7.78
2022-10-29T18:29:06.452Z,8.10
2022-10-29T18:31:35.995Z,7.60
2022-10-29T18:34:06.576Z,8.52
2022-10-29T18:36:37.741Z,7.70
2022-10-29T18:39:06.525Z,7.50
2022-10-29T18:41:37.522Z,7.28
2022-10-29T18:44:05.240Z,7.90
2022-10-29T18:46:36.367Z,8.25
2022-10-29T18:49:06.719Z,9.07
2022-10-29T18:51:35.016Z,7.55
2022-10-29T18:54:03.806Z,7.82
2022-10-29T18:56:36.048Z,8.57
2022-10-29T18:59:05.694Z,9.20
2022-10-29T19:01:35.312Z,8.10
2022-10-29T19:04:07.444Z,7.53
2022-10-29T19:06:37.928Z,8.00
2022-10-29T19:09:08.279Z,8.85
2022-10-29T19:11:37.634Z,8.25
2022-10-29T19:14:10.217Z,7.82
2022-10-29T19:16:37.830Z,8.98
2022-10-29T19:19:07.349Z,8.98
2022-10-29T19:21:37.501Z,8.52
2022-10-29T19:24:05.751Z,8.30
2022-10-29T19:26:35.048Z,8.65
2022-10-29T19:29:06.229Z,8.80
2022-10-29T19:31:34.620Z,9.20
2022-10-29T19:34:05.551Z,8.68
2022-10-29T19:36:34.663Z,8.50
2022-10-29T19:39:05.914Z,8.88
2022-10-29T19:41:34.731Z,9.25
2022-10-29T19:44:03.478Z,9.48
2022-10-29T19:46:34.140Z,8.75
2022-10-29T19:49:04.903Z,8.95
2022-10-29T19:51:32.640Z,9.60
2022-10-29T19:54:04.330Z,9.75
2022-10-29T19:56:35.569Z,9.95
2022-10-29T19:59:04.497Z,8.88
2022-10-29T20:01:33.913Z,9.23
2022-10-29T20:04:04.869Z,8.75
2022-10-29T20:06:33.037Z,9.80
2022-10-29T20:09:04.352Z,9.73
2022-10-29T20:11:35.182Z,8.95
2022-10-29T20:14:02.990Z,8.90
2022-10-29T20:16:31.877Z,9.07
2022-10-29T20:19:05.113Z,9.55
2022-10-29T20:21:32.871Z,9.20
2022-10-29T20:24:03.287Z,9.10
2022-10-29T20:26:35.187Z,9.38
2022-10-29T20:29:02.983Z,8.55
2022-10-29T20:31:34.742Z,8.63
2022-10-29T20:34:05.534Z,8.93
2022-10-29T20:36:34.289Z,9.15
2022-10-29T20:39:04.551Z,9.25
2022-10-29T20:41:32.590Z,9.38
2022-10-29T20:44:02.966Z,9.05
2022-10-29T20:46:32.722Z,9.27
2022-10-29T20:49:04.129Z,8.27
2022-10-29T20:51:32.930Z,9.95
2022-10-29T20:54:02.608Z,9.75
2022-10-29T20:56:33.099Z,8.75
2022-10-29T21:01:30.828Z,9.32
2022-10-29T21:03:58.642Z,9.50
2022-10-29T21:06:26.831Z,9.32
2022-10-29T21:08:54.957Z,10.25
2022-10-29T21:11:23.333Z,9.80
2022-10-29T21:13:52.616Z,9.75
2022-10-29T21:16:25.059Z,9.07
2022-10-29T21:18:54.136Z,9.93
2022-10-29T21:21:23.700Z,9.10
2022-10-29T21:24:00.191Z,9.75
2022-10-29T21:26:33.138Z,9.48
2022-10-29T21:29:03.629Z,9.05
2022-10-29T21:34:03.779Z,9.15
2022-10-29T21:36:32.482Z,9.23
2022-10-29T21:39:39.773Z,9.98
2022-10-29T21:42:12.502Z,8.85
2022-10-29T21:44:40.733Z,8.75
2022-10-29T21:47:08.259Z,9.32
2022-10-29T21:49:36.133Z,9.27
2022-10-29T21:52:05.170Z,9.02
2022-10-29T21:54:33.182Z,8.93
2022-10-29T21:57:01.406Z,8.82
2022-10-29T21:59:31.405Z,8.82
2022-10-29T22:02:01.242Z,9.48
2022-10-29T22:04:32.360Z,9.85
2022-10-29T22:07:09.496Z,8.95
2022-10-29T22:09:37.273Z,9.32
2022-10-29T22:12:05.035Z,9.70
2022-10-29T22:14:33.086Z,9.48
2022-10-29T22:17:01.771Z,9.23
2022-10-29T22:19:31.188Z,9.20
2022-10-29T22:21:58.797Z,9.45
2022-10-29T22:24:27.483Z,8.57
2022-10-29T22:26:55.143Z,8.98
2022-10-29T22:29:22.867Z,9.85
2022-10-29T22:31:50.783Z,9.02
2022-10-29T22:34:18.630Z,9.90
2022-10-29T22:36:46.241Z,9.10
2022-10-29T22:39:14.177Z,9.52
2022-10-29T22:41:42.343Z,10.07
2022-10-29T22:44:10.738Z,9.30
2022-10-29T22:46:39.129Z,9.52
2022-10-29T22:49:07.362Z,9.60
2022-10-29T22:51:35.548Z,9.98
2022-10-29T22:54:05.390Z,8.80
2022-10-29T22:56:34.602Z,9.65
2022-10-29T22:59:02.871Z,9.13
2022-10-29T23:01:42.080Z,9.13
2022-10-29T23:04:13.820Z,9.27
2022-10-29T23:06:41.704Z,9.65
2022-10-29T23:09:09.360Z,9.52
2022-10-29T23:11:39.329Z,9.45
2022-10-29T23:14:08.950Z,9.20
2022-10-29T23:16:37.082Z,9.73
2022-10-29T23:19:06.243Z,9.80
2022-10-29T23:21:38.953Z,9.45
2022-10-29T23:24:07.060Z,9.68
2022-10-29T23:26:34.938Z,9.45
2022-10-29T23:29:04.669Z,10.20
2022-10-29T23:31:35.595Z,8.52
2022-10-29T23:34:03.176Z,9.82
2022-10-29T23:36:34.054Z,9.52
2022-10-29T23:39:05.210Z,10.05
2022-10-29T23:41:33.675Z,9.15
2022-10-29T23:44:02.304Z,9.68
2022-10-29T23:46:30.405Z,10.40
2022-10-29T23:48:58.102Z,9.77
2022-10-29T23:51:25.870Z,10.18
2022-10-29T23:53:56.607Z,10.35
2022-10-29T23:56:25.958Z,9.27
2022-10-29T23:58:53.805Z,10.30
